Aztec, New Mexico
Current Conditions -  °F | °C
As of 6:53 AM on Wednesday 28 Jan 2015 (Local Time) from KFMN Reporting Station
Clear Clear  
Wind Chill: -6°   Ceiling: Unl
Heat Index: -2°   Visibility: 10mi
Dew Point: -3°   Wind: 7mph
Humidity: 89%   Direction: 60°ENE
Pressure: 30.27"   Gusts: NA
Location:  36.83°N, 107.99°W
Report Text: KFMN 281353Z 06006KT 10SM CLR M02/M03 A3027 RMK AO2 SLP261 T10171033
Loading
Personal Weather Stations






























Interactive Weather Map New forecast layout! Learn more

10-Day Weather Forecast

Advertisements
Track Severe Weather on mobile